sensor_id;sensor_type;location;lat;lon;timestamp;P1;durP1;ratioP1;P2;durP2;ratioP2
52952;SDS011;38815;55.932;-3.232;2022-09-09T00:04:40;15.50;;;3.83;;
52952;SDS011;38815;55.932;-3.232;2022-09-09T00:07:13;12.10;;;3.42;;
52952;SDS011;38815;55.932;-3.232;2022-09-09T00:20:14;13.10;;;3.45;;
52952;SDS011;38815;55.932;-3.232;2022-09-09T00:23:06;15.27;;;3.70;;
52952;SDS011;38815;55.932;-3.232;2022-09-09T00:28:18;16.90;;;5.15;;
52952;SDS011;38815;55.932;-3.232;2022-09-09T00:30:46;16.70;;;4.63;;
52952;SDS011;38815;55.932;-3.232;2022-09-09T00:33:16;18.80;;;5.82;;
52952;SDS011;38815;55.932;-3.232;2022-09-09T00:35:56;17.08;;;4.55;;
52952;SDS011;38815;55.932;-3.232;2022-09-09T00:41:05;17.10;;;4.90;;
52952;SDS011;38815;55.932;-3.232;2022-09-09T00:43:38;15.20;;;4.47;;
52952;SDS011;38815;55.932;-3.232;2022-09-09T00:57:31;15.82;;;4.60;;
52952;SDS011;38815;55.932;-3.232;2022-09-09T01:00:00;15.32;;;5.80;;
52952;SDS011;38815;55.932;-3.232;2022-09-09T01:06:01;18.15;;;6.65;;
52952;SDS011;38815;55.932;-3.232;2022-09-09T01:15:03;13.67;;;4.77;;
52952;SDS011;38815;55.932;-3.232;2022-09-09T01:17:30;14.95;;;4.55;;
52952;SDS011;38815;55.932;-3.232;2022-09-09T01:20:08;18.23;;;5.35;;
52952;SDS011;38815;55.932;-3.232;2022-09-09T01:28:05;17.38;;;4.55;;
52952;SDS011;38815;55.932;-3.232;2022-09-09T01:30:38;13.65;;;4.10;;
52952;SDS011;38815;55.932;-3.232;2022-09-09T01:33:05;13.65;;;5.20;;
52952;SDS011;38815;55.932;-3.232;2022-09-09T01:38:16;13.70;;;3.78;;
52952;SDS011;38815;55.932;-3.232;2022-09-09T01:40:43;20.42;;;3.90;;
52952;SDS011;38815;55.932;-3.232;2022-09-09T01:43:09;12.43;;;3.50;;
52952;SDS011;38815;55.932;-3.232;2022-09-09T01:45:35;15.50;;;3.72;;
52952;SDS011;38815;55.932;-3.232;2022-09-09T01:48:02;12.70;;;4.03;;
52952;SDS011;38815;55.932;-3.232;2022-09-09T01:50:28;12.10;;;3.90;;
52952;SDS011;38815;55.932;-3.232;2022-09-09T01:52:55;14.40;;;4.00;;
52952;SDS011;38815;55.932;-3.232;2022-09-09T01:55:28;13.20;;;3.70;;
52952;SDS011;38815;55.932;-3.232;2022-09-09T01:58:17;10.65;;;3.08;;
52952;SDS011;38815;55.932;-3.232;2022-09-09T02:00:48;14.07;;;4.03;;
52952;SDS011;38815;55.932;-3.232;2022-09-09T02:03:31;13.65;;;3.42;;
52952;SDS011;38815;55.932;-3.232;2022-09-09T02:06:12;14.07;;;4.00;;
52952;SDS011;38815;55.932;-3.232;2022-09-09T02:08:49;10.65;;;3.30;;
52952;SDS011;38815;55.932;-3.232;2022-09-09T02:11:17;12.40;;;3.67;;
52952;SDS011;38815;55.932;-3.232;2022-09-09T02:13:46;11.35;;;3.05;;
52952;SDS011;38815;55.932;-3.232;2022-09-09T02:16:23;12.88;;;3.47;;
52952;SDS011;38815;55.932;-3.232;2022-09-09T02:19:12;13.73;;;3.75;;
52952;SDS011;38815;55.932;-3.232;2022-09-09T02:21:51;10.85;;;3.35;;
52952;SDS011;38815;55.932;-3.232;2022-09-09T02:24:20;11.73;;;3.65;;
52952;SDS011;38815;55.932;-3.232;2022-09-09T02:26:47;10.65;;;3.08;;
52952;SDS011;38815;55.932;-3.232;2022-09-09T02:29:39;11.80;;;3.70;;
52952;SDS011;38815;55.932;-3.232;2022-09-09T02:32:06;13.60;;;4.00;;
52952;SDS011;38815;55.932;-3.232;2022-09-09T02:34:38;12.85;;;3.72;;
52952;SDS011;38815;55.932;-3.232;2022-09-09T02:37:08;11.20;;;2.90;;
52952;SDS011;38815;55.932;-3.232;2022-09-09T02:39:35;12.30;;;3.42;;
52952;SDS011;38815;55.932;-3.232;2022-09-09T02:42:01;14.07;;;3.95;;
52952;SDS011;38815;55.932;-3.232;2022-09-09T02:44:29;9.77;;;2.65;;
52952;SDS011;38815;55.932;-3.232;2022-09-09T02:47:05;11.45;;;3.25;;
52952;SDS011;38815;55.932;-3.232;2022-09-09T02:58:02;11.82;;;3.45;;
52952;SDS011;38815;55.932;-3.232;2022-09-09T03:00:32;12.75;;;3.90;;
52952;SDS011;38815;55.932;-3.232;2022-09-09T03:02:57;13.50;;;3.30;;
52952;SDS011;38815;55.932;-3.232;2022-09-09T03:05:23;11.40;;;3.17;;
52952;SDS011;38815;55.932;-3.232;2022-09-09T03:07:49;12.30;;;3.33;;
52952;SDS011;38815;55.932;-3.232;2022-09-09T03:10:15;9.10;;;3.03;;
52952;SDS011;38815;55.932;-3.232;2022-09-09T03:12:42;11.25;;;3.10;;
52952;SDS011;38815;55.932;-3.232;2022-09-09T03:15:08;14.43;;;3.88;;
52952;SDS011;38815;55.932;-3.232;2022-09-09T03:17:35;10.50;;;3.17;;
52952;SDS011;38815;55.932;-3.232;2022-09-09T03:20:01;9.73;;;3.13;;
52952;SDS011;38815;55.932;-3.232;2022-09-09T03:22:30;11.75;;;3.28;;
52952;SDS011;38815;55.932;-3.232;2022-09-09T03:24:55;12.52;;;4.13;;
52952;SDS011;38815;55.932;-3.232;2022-09-09T03:27:21;13.23;;;3.42;;
52952;SDS011;38815;55.932;-3.232;2022-09-09T03:29:47;14.82;;;3.80;;
52952;SDS011;38815;55.932;-3.232;2022-09-09T03:32:15;10.88;;;3.60;;
52952;SDS011;38815;55.932;-3.232;2022-09-09T03:34:42;13.52;;;3.47;;
52952;SDS011;38815;55.932;-3.232;2022-09-09T03:37:07;11.75;;;3.22;;
52952;SDS011;38815;55.932;-3.232;2022-09-09T03:39:33;10.77;;;3.15;;
52952;SDS011;38815;55.932;-3.232;2022-09-09T03:41:58;13.85;;;3.13;;
52952;SDS011;38815;55.932;-3.232;2022-09-09T03:44:24;11.07;;;3.40;;
52952;SDS011;38815;55.932;-3.232;2022-09-09T03:46:49;13.20;;;3.42;;
52952;SDS011;38815;55.932;-3.232;2022-09-09T03:49:14;12.63;;;3.05;;
52952;SDS011;38815;55.932;-3.232;2022-09-09T03:51:40;13.13;;;3.33;;
52952;SDS011;38815;55.932;-3.232;2022-09-09T03:54:06;10.10;;;2.80;;
52952;SDS011;38815;55.932;-3.232;2022-09-09T03:56:34;14.15;;;3.85;;
52952;SDS011;38815;55.932;-3.232;2022-09-09T03:59:00;11.73;;;3.22;;
52952;SDS011;38815;55.932;-3.232;2022-09-09T04:01:25;14.82;;;3.75;;
52952;SDS011;38815;55.932;-3.232;2022-09-09T04:03:51;14.90;;;3.10;;
52952;SDS011;38815;55.932;-3.232;2022-09-09T04:06:17;11.93;;;2.85;;
52952;SDS011;38815;55.932;-3.232;2022-09-09T04:08:45;12.27;;;3.15;;
52952;SDS011;38815;55.932;-3.232;2022-09-09T04:11:13;13.27;;;3.40;;
52952;SDS011;38815;55.932;-3.232;2022-09-09T04:13:39;13.15;;;3.25;;
52952;SDS011;38815;55.932;-3.232;2022-09-09T04:16:05;12.18;;;2.80;;
52952;SDS011;38815;55.932;-3.232;2022-09-09T04:18:32;17.17;;;4.15;;
52952;SDS011;38815;55.932;-3.232;2022-09-09T04:20:57;15.35;;;3.50;;
52952;SDS011;38815;55.932;-3.232;2022-09-09T04:23:23;12.05;;;2.97;;
52952;SDS011;38815;55.932;-3.232;2022-09-09T04:25:51;11.02;;;2.83;;
52952;SDS011;38815;55.932;-3.232;2022-09-09T04:28:18;16.48;;;3.40;;
52952;SDS011;38815;55.932;-3.232;2022-09-09T04:30:46;13.23;;;3.15;;
52952;SDS011;38815;55.932;-3.232;2022-09-09T04:33:12;15.35;;;3.15;;
52952;SDS011;38815;55.932;-3.232;2022-09-09T04:35:38;10.40;;;2.33;;
52952;SDS011;38815;55.932;-3.232;2022-09-09T04:38:04;13.10;;;2.95;;
52952;SDS011;38815;55.932;-3.232;2022-09-09T04:40:34;13.52;;;3.03;;
52952;SDS011;38815;55.932;-3.232;2022-09-09T04:43:00;13.70;;;3.35;;
52952;SDS011;38815;55.932;-3.232;2022-09-09T04:45:28;12.32;;;2.92;;
52952;SDS011;38815;55.932;-3.232;2022-09-09T04:47:54;13.95;;;2.90;;
52952;SDS011;38815;55.932;-3.232;2022-09-09T04:50:20;10.52;;;2.92;;
52952;SDS011;38815;55.932;-3.232;2022-09-09T04:52:45;10.88;;;2.85;;
52952;SDS011;38815;55.932;-3.232;2022-09-09T04:55:11;12.38;;;3.10;;
52952;SDS011;38815;55.932;-3.232;2022-09-09T04:57:38;13.20;;;2.88;;
52952;SDS011;38815;55.932;-3.232;2022-09-09T05:00:04;14.13;;;2.83;;
52952;SDS011;38815;55.932;-3.232;2022-09-09T05:02:29;11.82;;;3.22;;
52952;SDS011;38815;55.932;-3.232;2022-09-09T05:04:55;15.45;;;3.15;;
52952;SDS011;38815;55.932;-3.232;2022-09-09T05:07:21;12.90;;;2.83;;
52952;SDS011;38815;55.932;-3.232;2022-09-09T05:09:46;14.10;;;3.33;;
52952;SDS011;38815;55.932;-3.232;2022-09-09T05:12:14;16.17;;;3.17;;
52952;SDS011;38815;55.932;-3.232;2022-09-09T05:14:41;11.82;;;2.88;;
52952;SDS011;38815;55.932;-3.232;2022-09-09T05:17:07;13.02;;;3.17;;
52952;SDS011;38815;55.932;-3.232;2022-09-09T05:19:32;10.02;;;2.88;;
52952;SDS011;38815;55.932;-3.232;2022-09-09T05:21:58;11.77;;;2.65;;
52952;SDS011;38815;55.932;-3.232;2022-09-09T05:24:23;12.23;;;2.65;;
52952;SDS011;38815;55.932;-3.232;2022-09-09T05:26:49;10.50;;;2.85;;
52952;SDS011;38815;55.932;-3.232;2022-09-09T05:29:14;12.65;;;3.13;;
52952;SDS011;38815;55.932;-3.232;2022-09-09T05:31:39;12.80;;;3.00;;
52952;SDS011;38815;55.932;-3.232;2022-09-09T05:34:05;12.57;;;2.50;;
52952;SDS011;38815;55.932;-3.232;2022-09-09T05:36:31;11.57;;;2.80;;
52952;SDS011;38815;55.932;-3.232;2022-09-09T05:38:57;11.75;;;2.50;;
52952;SDS011;38815;55.932;-3.232;2022-09-09T05:41:22;11.60;;;3.13;;
52952;SDS011;38815;55.932;-3.232;2022-09-09T05:43:48;12.25;;;2.92;;
52952;SDS011;38815;55.932;-3.232;2022-09-09T05:46:17;11.95;;;2.95;;
52952;SDS011;38815;55.932;-3.232;2022-09-09T05:48:45;11.95;;;2.95;;
52952;SDS011;38815;55.932;-3.232;2022-09-09T05:51:13;12.40;;;2.90;;
52952;SDS011;38815;55.932;-3.232;2022-09-09T05:53:43;12.60;;;2.75;;
52952;SDS011;38815;55.932;-3.232;2022-09-09T05:56:10;10.43;;;2.47;;
52952;SDS011;38815;55.932;-3.232;2022-09-09T05:58:39;14.30;;;2.50;;
52952;SDS011;38815;55.932;-3.232;2022-09-09T06:01:08;13.68;;;2.75;;
52952;SDS011;38815;55.932;-3.232;2022-09-09T06:03:36;10.98;;;2.85;;
52952;SDS011;38815;55.932;-3.232;2022-09-09T06:06:04;8.65;;;2.60;;
52952;SDS011;38815;55.932;-3.232;2022-09-09T06:08:31;9.45;;;2.30;;
52952;SDS011;38815;55.932;-3.232;2022-09-09T06:11:04;11.60;;;2.80;;
52952;SDS011;38815;55.932;-3.232;2022-09-09T06:13:30;10.38;;;2.20;;
52952;SDS011;38815;55.932;-3.232;2022-09-09T06:15:56;13.60;;;2.55;;
52952;SDS011;38815;55.932;-3.232;2022-09-09T06:18:23;10.27;;;2.28;;
52952;SDS011;38815;55.932;-3.232;2022-09-09T06:20:56;9.32;;;2.50;;
52952;SDS011;38815;55.932;-3.232;2022-09-09T06:23:26;10.35;;;2.47;;
52952;SDS011;38815;55.932;-3.232;2022-09-09T06:26:06;11.93;;;2.67;;
52952;SDS011;38815;55.932;-3.232;2022-09-09T06:28:34;11.35;;;2.50;;
52952;SDS011;38815;55.932;-3.232;2022-09-09T06:31:02;10.57;;;2.13;;
52952;SDS011;38815;55.932;-3.232;2022-09-09T06:33:35;12.55;;;2.70;;
52952;SDS011;38815;55.932;-3.232;2022-09-09T06:36:06;10.75;;;2.63;;
52952;SDS011;38815;55.932;-3.232;2022-09-09T06:38:37;11.40;;;2.20;;
52952;SDS011;38815;55.932;-3.232;2022-09-09T06:41:02;12.88;;;2.10;;
52952;SDS011;38815;55.932;-3.232;2022-09-09T06:43:28;10.77;;;2.35;;
52952;SDS011;38815;55.932;-3.232;2022-09-09T06:48:22;10.25;;;2.38;;
52952;SDS011;38815;55.932;-3.232;2022-09-09T06:50:47;10.02;;;1.85;;
52952;SDS011;38815;55.932;-3.232;2022-09-09T06:53:17;11.02;;;2.35;;
52952;SDS011;38815;55.932;-3.232;2022-09-09T06:55:44;15.90;;;2.63;;
52952;SDS011;38815;55.932;-3.232;2022-09-09T06:58:10;11.43;;;2.15;;
52952;SDS011;38815;55.932;-3.232;2022-09-09T07:00:35;11.43;;;2.13;;
52952;SDS011;38815;55.932;-3.232;2022-09-09T07:03:03;11.75;;;2.58;;
52952;SDS011;38815;55.932;-3.232;2022-09-09T07:05:29;13.85;;;2.72;;
52952;SDS011;38815;55.932;-3.232;2022-09-09T07:07:54;13.13;;;2.53;;
52952;SDS011;38815;55.932;-3.232;2022-09-09T07:10:20;12.60;;;2.47;;
52952;SDS011;38815;55.932;-3.232;2022-09-09T07:12:50;10.20;;;2.30;;
52952;SDS011;38815;55.932;-3.232;2022-09-09T07:15:18;18.17;;;2.60;;
52952;SDS011;38815;55.932;-3.232;2022-09-09T07:17:44;13.90;;;2.45;;
52952;SDS011;38815;55.932;-3.232;2022-09-09T07:20:10;13.15;;;2.53;;
52952;SDS011;38815;55.932;-3.232;2022-09-09T07:22:36;13.20;;;2.63;;
52952;SDS011;38815;55.932;-3.232;2022-09-09T07:25:02;12.05;;;2.38;;
52952;SDS011;38815;55.932;-3.232;2022-09-09T07:27:28;13.02;;;2.45;;
52952;SDS011;38815;55.932;-3.232;2022-09-09T07:29:53;12.50;;;2.60;;
52952;SDS011;38815;55.932;-3.232;2022-09-09T07:32:19;13.13;;;2.17;;
52952;SDS011;38815;55.932;-3.232;2022-09-09T07:34:45;12.00;;;2.70;;
52952;SDS011;38815;55.932;-3.232;2022-09-09T07:37:12;11.73;;;2.58;;
52952;SDS011;38815;55.932;-3.232;2022-09-09T07:39:38;9.95;;;1.90;;
52952;SDS011;38815;55.932;-3.232;2022-09-09T07:42:04;14.38;;;2.58;;
52952;SDS011;38815;55.932;-3.232;2022-09-09T07:44:30;13.75;;;2.55;;
52952;SDS011;38815;55.932;-3.232;2022-09-09T07:46:59;14.82;;;2.95;;
52952;SDS011;38815;55.932;-3.232;2022-09-09T07:49:25;15.20;;;2.90;;
52952;SDS011;38815;55.932;-3.232;2022-09-09T07:51:50;14.13;;;2.60;;
52952;SDS011;38815;55.932;-3.232;2022-09-09T07:54:17;11.18;;;2.55;;
52952;SDS011;38815;55.932;-3.232;2022-09-09T07:56:48;13.10;;;2.50;;
52952;SDS011;38815;55.932;-3.232;2022-09-09T07:59:15;12.65;;;2.65;;
52952;SDS011;38815;55.932;-3.232;2022-09-09T08:01:42;19.23;;;2.90;;
52952;SDS011;38815;55.932;-3.232;2022-09-09T08:04:14;12.48;;;2.80;;
52952;SDS011;38815;55.932;-3.232;2022-09-09T08:06:42;19.45;;;2.83;;
52952;SDS011;38815;55.932;-3.232;2022-09-09T08:09:09;13.82;;;2.72;;
52952;SDS011;38815;55.932;-3.232;2022-09-09T08:11:35;10.65;;;2.67;;
52952;SDS011;38815;55.932;-3.232;2022-09-09T08:14:02;14.15;;;2.95;;
52952;SDS011;38815;55.932;-3.232;2022-09-09T08:16:31;15.75;;;3.05;;
52952;SDS011;38815;55.932;-3.232;2022-09-09T08:18:57;13.38;;;2.60;;
52952;SDS011;38815;55.932;-3.232;2022-09-09T08:21:25;23.10;;;2.80;;
52952;SDS011;38815;55.932;-3.232;2022-09-09T08:23:53;13.82;;;2.70;;
52952;SDS011;38815;55.932;-3.232;2022-09-09T08:26:21;15.35;;;2.40;;
52952;SDS011;38815;55.932;-3.232;2022-09-09T08:28:49;15.48;;;2.40;;
52952;SDS011;38815;55.932;-3.232;2022-09-09T08:31:22;12.80;;;2.58;;
52952;SDS011;38815;55.932;-3.232;2022-09-09T08:33:50;14.73;;;3.13;;
52952;SDS011;38815;55.932;-3.232;2022-09-09T08:36:18;14.00;;;2.95;;
52952;SDS011;38815;55.932;-3.232;2022-09-09T08:38:51;12.95;;;2.88;;
52952;SDS011;38815;55.932;-3.232;2022-09-09T08:58:09;19.88;;;3.30;;
52952;SDS011;38815;55.932;-3.232;2022-09-09T09:03:22;15.75;;;2.85;;
52952;SDS011;38815;55.932;-3.232;2022-09-09T09:05:56;13.45;;;2.83;;
52952;SDS011;38815;55.932;-3.232;2022-09-09T09:08:26;17.00;;;2.78;;
52952;SDS011;38815;55.932;-3.232;2022-09-09T09:11:00;15.75;;;2.53;;
52952;SDS011;38815;55.932;-3.232;2022-09-09T09:19:14;15.18;;;2.83;;
52952;SDS011;38815;55.932;-3.232;2022-09-09T09:21:42;15.32;;;3.17;;
52952;SDS011;38815;55.932;-3.232;2022-09-09T09:24:16;16.25;;;2.80;;
52952;SDS011;38815;55.932;-3.232;2022-09-09T09:26:48;21.05;;;3.38;;
52952;SDS011;38815;55.932;-3.232;2022-09-09T09:29:15;18.65;;;2.55;;
52952;SDS011;38815;55.932;-3.232;2022-09-09T09:31:45;18.63;;;2.88;;
52952;SDS011;38815;55.932;-3.232;2022-09-09T09:34:16;15.02;;;2.47;;
52952;SDS011;38815;55.932;-3.232;2022-09-09T09:39:34;12.95;;;2.55;;
52952;SDS011;38815;55.932;-3.232;2022-09-09T09:42:14;13.30;;;2.75;;
52952;SDS011;38815;55.932;-3.232;2022-09-09T09:44:42;15.07;;;2.92;;
52952;SDS011;38815;55.932;-3.232;2022-09-09T09:47:12;12.65;;;2.90;;
52952;SDS011;38815;55.932;-3.232;2022-09-09T09:49:38;18.60;;;2.80;;
52952;SDS011;38815;55.932;-3.232;2022-09-09T09:52:04;16.67;;;2.85;;
52952;SDS011;38815;55.932;-3.232;2022-09-09T09:54:33;10.27;;;2.35;;
52952;SDS011;38815;55.932;-3.232;2022-09-09T09:57:12;13.80;;;2.45;;
52952;SDS011;38815;55.932;-3.232;2022-09-09T09:59:40;15.85;;;3.00;;
52952;SDS011;38815;55.932;-3.232;2022-09-09T10:02:06;14.02;;;2.85;;
52952;SDS011;38815;55.932;-3.232;2022-09-09T10:04:38;14.45;;;2.95;;
52952;SDS011;38815;55.932;-3.232;2022-09-09T10:07:17;16.25;;;2.63;;
52952;SDS011;38815;55.932;-3.232;2022-09-09T10:09:44;17.58;;;3.20;;
52952;SDS011;38815;55.932;-3.232;2022-09-09T10:12:24;14.65;;;2.58;;
52952;SDS011;38815;55.932;-3.232;2022-09-09T10:15:16;13.95;;;2.85;;
52952;SDS011;38815;55.932;-3.232;2022-09-09T10:18:08;15.65;;;2.60;;
52952;SDS011;38815;55.932;-3.232;2022-09-09T10:20:45;16.85;;;2.70;;
52952;SDS011;38815;55.932;-3.232;2022-09-09T10:26:50;15.75;;;2.65;;
52952;SDS011;38815;55.932;-3.232;2022-09-09T10:35:37;15.93;;;3.05;;
52952;SDS011;38815;55.932;-3.232;2022-09-09T10:38:18;18.48;;;3.03;;
52952;SDS011;38815;55.932;-3.232;2022-09-09T10:43:40;16.92;;;3.47;;
52952;SDS011;38815;55.932;-3.232;2022-09-09T10:49:18;13.57;;;2.80;;
52952;SDS011;38815;55.932;-3.232;2022-09-09T10:57:42;18.50;;;2.63;;
52952;SDS011;38815;55.932;-3.232;2022-09-09T11:03:03;18.13;;;3.42;;
52952;SDS011;38815;55.932;-3.232;2022-09-09T11:08:10;15.43;;;3.05;;
52952;SDS011;38815;55.932;-3.232;2022-09-09T11:15:59;13.45;;;2.45;;
52952;SDS011;38815;55.932;-3.232;2022-09-09T11:18:36;16.42;;;3.22;;
52952;SDS011;38815;55.932;-3.232;2022-09-09T11:21:07;15.27;;;2.95;;
52952;SDS011;38815;55.932;-3.232;2022-09-09T11:23:43;16.25;;;3.00;;
52952;SDS011;38815;55.932;-3.232;2022-09-09T11:26:25;12.90;;;2.58;;
52952;SDS011;38815;55.932;-3.232;2022-09-09T11:29:05;23.25;;;3.45;;
52952;SDS011;38815;55.932;-3.232;2022-09-09T11:34:31;19.95;;;3.10;;
52952;SDS011;38815;55.932;-3.232;2022-09-09T11:39:42;14.90;;;2.58;;
52952;SDS011;38815;55.932;-3.232;2022-09-09T11:42:23;16.88;;;3.05;;
52952;SDS011;38815;55.932;-3.232;2022-09-09T11:44:49;17.27;;;3.13;;
52952;SDS011;38815;55.932;-3.232;2022-09-09T11:47:26;19.27;;;3.05;;
52952;SDS011;38815;55.932;-3.232;2022-09-09T11:50:30;16.88;;;3.17;;
52952;SDS011;38815;55.932;-3.232;2022-09-09T11:52:48;16.73;;;3.15;;
52952;SDS011;38815;55.932;-3.232;2022-09-09T11:57:58;16.48;;;3.00;;
52952;SDS011;38815;55.932;-3.232;2022-09-09T12:02:57;13.18;;;2.45;;
52952;SDS011;38815;55.932;-3.232;2022-09-09T12:05:23;12.35;;;2.40;;
52952;SDS011;38815;55.932;-3.232;2022-09-09T12:08:02;12.98;;;2.30;;
52952;SDS011;38815;55.932;-3.232;2022-09-09T12:10:30;16.58;;;2.85;;
52952;SDS011;38815;55.932;-3.232;2022-09-09T12:13:08;17.30;;;2.60;;
52952;SDS011;38815;55.932;-3.232;2022-09-09T12:15:57;15.75;;;3.22;;
52952;SDS011;38815;55.932;-3.232;2022-09-09T12:18:25;17.27;;;2.53;;
52952;SDS011;38815;55.932;-3.232;2022-09-09T12:23:45;15.63;;;2.95;;
52952;SDS011;38815;55.932;-3.232;2022-09-09T12:32:00;17.70;;;2.97;;
52952;SDS011;38815;55.932;-3.232;2022-09-09T12:39:56;20.13;;;4.10;;
52952;SDS011;38815;55.932;-3.232;2022-09-09T12:42:24;104.05;;;42.75;;
52952;SDS011;38815;55.932;-3.232;2022-09-09T12:45:00;107.22;;;39.92;;
52952;SDS011;38815;55.932;-3.232;2022-09-09T12:50:16;282.25;;;113.07;;
52952;SDS011;38815;55.932;-3.232;2022-09-09T12:55:33;303.70;;;115.00;;
52952;SDS011;38815;55.932;-3.232;2022-09-09T12:58:02;281.80;;;107.30;;
52952;SDS011;38815;55.932;-3.232;2022-09-09T13:00:31;180.85;;;70.95;;
52952;SDS011;38815;55.932;-3.232;2022-09-09T13:02:59;172.75;;;62.38;;
52952;SDS011;38815;55.932;-3.232;2022-09-09T13:05:35;104.95;;;40.35;;
52952;SDS011;38815;55.932;-3.232;2022-09-09T13:08:03;117.25;;;45.25;;
52952;SDS011;38815;55.932;-3.232;2022-09-09T13:10:31;123.57;;;46.25;;
52952;SDS011;38815;55.932;-3.232;2022-09-09T13:13:00;79.00;;;31.42;;
52952;SDS011;38815;55.932;-3.232;2022-09-09T13:15:27;88.78;;;30.85;;
52952;SDS011;38815;55.932;-3.232;2022-09-09T13:17:55;88.40;;;32.33;;
52952;SDS011;38815;55.932;-3.232;2022-09-09T13:20:25;77.43;;;26.85;;
52952;SDS011;38815;55.932;-3.232;2022-09-09T13:22:52;73.18;;;27.20;;
52952;SDS011;38815;55.932;-3.232;2022-09-09T13:25:21;57.03;;;24.10;;
52952;SDS011;38815;55.932;-3.232;2022-09-09T13:27:56;64.53;;;23.65;;
52952;SDS011;38815;55.932;-3.232;2022-09-09T13:33:04;61.20;;;23.00;;
52952;SDS011;38815;55.932;-3.232;2022-09-09T13:35:30;60.92;;;21.15;;
52952;SDS011;38815;55.932;-3.232;2022-09-09T13:37:57;45.38;;;19.25;;
52952;SDS011;38815;55.932;-3.232;2022-09-09T13:40:24;50.28;;;18.05;;
52952;SDS011;38815;55.932;-3.232;2022-09-09T13:42:56;45.47;;;16.58;;
52952;SDS011;38815;55.932;-3.232;2022-09-09T13:45:23;39.33;;;15.20;;
52952;SDS011;38815;55.932;-3.232;2022-09-09T13:47:54;45.13;;;13.68;;
52952;SDS011;38815;55.932;-3.232;2022-09-09T13:50:28;37.15;;;13.50;;
52952;SDS011;38815;55.932;-3.232;2022-09-09T13:55:23;30.52;;;11.85;;
52952;SDS011;38815;55.932;-3.232;2022-09-09T13:58:03;30.73;;;10.65;;
52952;SDS011;38815;55.932;-3.232;2022-09-09T14:00:30;31.55;;;11.10;;
52952;SDS011;38815;55.932;-3.232;2022-09-09T14:02:57;25.05;;;8.35;;
52952;SDS011;38815;55.932;-3.232;2022-09-09T14:05:25;25.58;;;9.68;;
52952;SDS011;38815;55.932;-3.232;2022-09-09T14:07:51;28.13;;;9.52;;
52952;SDS011;38815;55.932;-3.232;2022-09-09T14:10:16;29.15;;;9.73;;
52952;SDS011;38815;55.932;-3.232;2022-09-09T14:12:42;29.65;;;8.27;;
52952;SDS011;38815;55.932;-3.232;2022-09-09T14:15:09;29.42;;;8.93;;
52952;SDS011;38815;55.932;-3.232;2022-09-09T14:17:36;24.92;;;8.20;;
52952;SDS011;38815;55.932;-3.232;2022-09-09T14:20:02;23.35;;;7.85;;
52952;SDS011;38815;55.932;-3.232;2022-09-09T14:22:32;25.77;;;7.47;;
52952;SDS011;38815;55.932;-3.232;2022-09-09T14:24:58;22.23;;;6.82;;
52952;SDS011;38815;55.932;-3.232;2022-09-09T14:27:23;24.00;;;7.55;;
52952;SDS011;38815;55.932;-3.232;2022-09-09T14:29:51;18.85;;;6.03;;
52952;SDS011;38815;55.932;-3.232;2022-09-09T14:32:17;25.75;;;6.10;;
52952;SDS011;38815;55.932;-3.232;2022-09-09T14:34:42;20.65;;;5.80;;
52952;SDS011;38815;55.932;-3.232;2022-09-09T14:37:07;19.02;;;5.00;;
52952;SDS011;38815;55.932;-3.232;2022-09-09T14:39:33;19.92;;;4.88;;
52952;SDS011;38815;55.932;-3.232;2022-09-09T14:41:58;20.27;;;4.90;;
52952;SDS011;38815;55.932;-3.232;2022-09-09T14:44:24;18.60;;;4.50;;
52952;SDS011;38815;55.932;-3.232;2022-09-09T14:46:51;22.08;;;5.15;;
52952;SDS011;38815;55.932;-3.232;2022-09-09T14:49:18;24.05;;;4.57;;
52952;SDS011;38815;55.932;-3.232;2022-09-09T14:51:43;18.92;;;4.18;;
52952;SDS011;38815;55.932;-3.232;2022-09-09T14:54:08;17.35;;;4.32;;
52952;SDS011;38815;55.932;-3.232;2022-09-09T14:56:35;14.82;;;3.42;;
52952;SDS011;38815;55.932;-3.232;2022-09-09T14:59:01;15.10;;;4.20;;
52952;SDS011;38815;55.932;-3.232;2022-09-09T15:01:27;17.25;;;3.85;;
52952;SDS011;38815;55.932;-3.232;2022-09-09T15:03:56;16.45;;;3.47;;
52952;SDS011;38815;55.932;-3.232;2022-09-09T15:06:23;13.82;;;3.42;;
52952;SDS011;38815;55.932;-3.232;2022-09-09T15:08:51;14.93;;;3.63;;
52952;SDS011;38815;55.932;-3.232;2022-09-09T15:11:18;12.32;;;2.97;;
52952;SDS011;38815;55.932;-3.232;2022-09-09T15:13:45;17.60;;;3.63;;
52952;SDS011;38815;55.932;-3.232;2022-09-09T15:18:44;11.38;;;2.78;;
52952;SDS011;38815;55.932;-3.232;2022-09-09T15:21:12;10.77;;;2.85;;
52952;SDS011;38815;55.932;-3.232;2022-09-09T15:23:39;10.43;;;2.58;;
52952;SDS011;38815;55.932;-3.232;2022-09-09T15:26:05;11.45;;;2.53;;
52952;SDS011;38815;55.932;-3.232;2022-09-09T15:28:31;16.05;;;3.25;;
52952;SDS011;38815;55.932;-3.232;2022-09-09T15:31:04;12.23;;;2.70;;
52952;SDS011;38815;55.932;-3.232;2022-09-09T15:33:45;12.75;;;2.60;;
52952;SDS011;38815;55.932;-3.232;2022-09-09T15:36:20;12.00;;;3.00;;
52952;SDS011;38815;55.932;-3.232;2022-09-09T15:38:50;12.55;;;2.50;;
52952;SDS011;38815;55.932;-3.232;2022-09-09T15:41:17;9.88;;;2.53;;
52952;SDS011;38815;55.932;-3.232;2022-09-09T15:43:47;12.32;;;2.88;;
52952;SDS011;38815;55.932;-3.232;2022-09-09T15:46:28;18.33;;;3.05;;
52952;SDS011;38815;55.932;-3.232;2022-09-09T15:51:34;12.93;;;2.72;;
52952;SDS011;38815;55.932;-3.232;2022-09-09T15:54:00;24.13;;;3.60;;
52952;SDS011;38815;55.932;-3.232;2022-09-09T15:56:26;14.18;;;3.13;;
52952;SDS011;38815;55.932;-3.232;2022-09-09T15:58:53;14.85;;;2.88;;
52952;SDS011;38815;55.932;-3.232;2022-09-09T16:01:20;16.27;;;2.83;;
52952;SDS011;38815;55.932;-3.232;2022-09-09T16:03:46;13.85;;;2.75;;
52952;SDS011;38815;55.932;-3.232;2022-09-09T16:06:15;10.15;;;2.63;;
52952;SDS011;38815;55.932;-3.232;2022-09-09T16:08:43;14.48;;;2.95;;
52952;SDS011;38815;55.932;-3.232;2022-09-09T16:11:14;12.93;;;2.80;;
52952;SDS011;38815;55.932;-3.232;2022-09-09T16:13:45;15.02;;;4.00;;
52952;SDS011;38815;55.932;-3.232;2022-09-09T16:16:11;14.75;;;2.65;;
52952;SDS011;38815;55.932;-3.232;2022-09-09T16:18:42;15.57;;;3.70;;
52952;SDS011;38815;55.932;-3.232;2022-09-09T16:21:14;17.50;;;5.15;;
52952;SDS011;38815;55.932;-3.232;2022-09-09T16:23:42;16.23;;;4.28;;
52952;SDS011;38815;55.932;-3.232;2022-09-09T16:26:13;15.10;;;3.85;;
52952;SDS011;38815;55.932;-3.232;2022-09-09T16:28:39;17.65;;;5.45;;
52952;SDS011;38815;55.932;-3.232;2022-09-09T16:31:06;18.40;;;4.47;;
52952;SDS011;38815;55.932;-3.232;2022-09-09T16:33:32;19.15;;;3.28;;
52952;SDS011;38815;55.932;-3.232;2022-09-09T16:35:58;15.48;;;3.90;;
52952;SDS011;38815;55.932;-3.232;2022-09-09T16:38:30;15.05;;;4.53;;
52952;SDS011;38815;55.932;-3.232;2022-09-09T16:40:58;19.83;;;4.25;;
52952;SDS011;38815;55.932;-3.232;2022-09-09T16:43:24;16.48;;;3.95;;
52952;SDS011;38815;55.932;-3.232;2022-09-09T16:45:49;15.95;;;4.65;;
52952;SDS011;38815;55.932;-3.232;2022-09-09T16:48:15;15.40;;;4.10;;
52952;SDS011;38815;55.932;-3.232;2022-09-09T16:50:40;13.38;;;3.60;;
52952;SDS011;38815;55.932;-3.232;2022-09-09T16:53:06;18.42;;;3.70;;
52952;SDS011;38815;55.932;-3.232;2022-09-09T16:55:37;13.00;;;2.85;;
52952;SDS011;38815;55.932;-3.232;2022-09-09T16:58:04;11.90;;;3.50;;
52952;SDS011;38815;55.932;-3.232;2022-09-09T17:00:30;17.17;;;4.05;;
52952;SDS011;38815;55.932;-3.232;2022-09-09T17:02:55;16.08;;;3.40;;
52952;SDS011;38815;55.932;-3.232;2022-09-09T17:05:20;14.18;;;4.00;;
52952;SDS011;38815;55.932;-3.232;2022-09-09T17:07:46;13.68;;;3.60;;
52952;SDS011;38815;55.932;-3.232;2022-09-09T17:10:11;14.18;;;3.38;;
52952;SDS011;38815;55.932;-3.232;2022-09-09T17:12:37;19.15;;;4.00;;